Time;durP1;ratioP1;P1;durP2;ratioP2;P2;SDS_P1;SDS_P2;PMS_P1;PMS_P2;Temp;Humidity;BMP_temperature;BMP_pressure;BME280_temperature;BME280_humidity;BME280_pressure;Samples;Min_cycle;Max_cycle;Signal;HPM_P1;HPM_P2
2023/09/19 00:01:53;;;;;;;14.85;13.40;;;;;;;;;;10464099;28;20204;-82
2023/09/19 00:07:36;;;;;;;17.95;14.52;;;;;;;;;;10484360;28;20208;-83
2023/09/19 00:12:59;;;;;;;17.90;14.70;;;21.40;99.90;;;;;;10484124;28;20191;-83
2023/09/19 00:18:21;;;;;;;17.50;15.57;;;;;;;;;;10505707;28;20408;-83
2023/09/19 00:23:44;;;;;;;16.30;14.27;;;;;;;;;;10522507;28;20215;-82
2023/09/19 00:29:08;;;;;;;29.00;15.70;;;21.20;1.00;;;;;;10522401;28;20309;-81
2023/09/19 00:34:34;;;;;;;15.68;14.18;;;21.20;1.00;;;;;;10515041;28;20199;-80
2023/09/19 00:39:55;;;;;;;18.48;15.05;;;21.20;1.00;;;;;;10503655;28;20222;-79
2023/09/19 00:45:17;;;;;;;19.63;15.35;;;21.10;1.00;;;;;;10489499;28;20414;-78
2023/09/19 00:50:42;;;;;;;16.27;14.65;;;21.10;99.90;;;;;;10482429;28;20283;-83
2023/09/19 00:56:07;;;;;;;18.55;15.35;;;20.90;99.90;;;;;;10478516;28;20258;-83
2023/09/19 01:01:28;;;;;;;17.63;15.38;;;20.90;94.00;;;;;;10461516;28;20269;-81
2023/09/19 01:06:53;;;;;;;14.85;13.27;;;20.90;64.80;;;;;;10482509;28;20278;-80
2023/09/19 01:12:18;;;;;;;13.93;12.45;;;20.80;44.80;;;;;;10464338;28;20248;-83
2023/09/19 01:17:56;;;;;;;15.30;11.10;;;20.80;99.90;;;;;;10491939;28;20526;-79
2023/09/19 01:23:22;;;;;;;12.70;10.48;;;;;;;;;;10469374;28;20266;-79
2023/09/19 01:28:57;;;;;;;14.82;9.75;;;20.60;1.00;;;;;;10504124;28;20221;-80
2023/09/19 01:34:18;;;;;;;10.07;8.70;;;20.50;99.90;;;;;;10484147;28;20195;-82
2023/09/19 01:39:41;;;;;;;13.57;9.55;;;20.30;81.30;;;;;;10493153;28;20237;-82
2023/09/19 01:45:18;;;;;;;8.57;7.75;;;20.20;1.00;;;;;;10468172;28;20227;-81
2023/09/19 01:50:59;;;;;;;10.07;7.55;;;20.10;99.90;;;;;;10477427;28;20194;-82
2023/09/19 01:56:32;;;;;;;10.95;7.78;;;20.00;1.00;;;;;;10506316;28;20235;-81
2023/09/19 02:01:55;;;;;;;6.72;6.03;;;19.90;1.00;;;;;;10532641;28;20203;-82
2023/09/19 02:07:17;;;;;;;6.82;6.13;;;20.00;99.90;;;;;;10513629;28;20192;-82
2023/09/19 02:12:38;;;;;;;10.63;6.63;;;19.90;99.90;;;;;;10494029;28;20277;-79
2023/09/19 02:18:00;;;;;;;7.30;5.40;;;19.90;1.00;;;;;;10503575;28;20462;-80
2023/09/19 02:23:22;;;;;;;6.63;5.38;;;19.80;99.90;;;;;;10472628;28;20195;-78
2023/09/19 02:28:43;;;;;;;8.63;5.55;;;19.80;1.00;;;;;;10492370;28;20202;-79
2023/09/19 02:34:06;;;;;;;8.18;5.68;;;19.70;99.90;;;;;;10499859;28;20199;-79
2023/09/19 02:39:28;;;;;;;6.70;5.10;;;19.70;1.00;;;;;;10506177;28;20219;-79
2023/09/19 02:44:49;;;;;;;8.95;5.43;;;19.60;1.00;;;;;;10514210;28;20421;-78
2023/09/19 02:50:12;;;;;;;5.57;4.80;;;19.60;98.60;;;;;;10525613;28;20205;-80
2023/09/19 02:55:33;;;;;;;7.45;4.18;;;19.60;1.00;;;;;;10510343;28;20246;-80
2023/09/19 03:00:55;;;;;;;5.18;4.10;;;19.60;88.60;;;;;;10498295;28;20229;-79
2023/09/19 03:06:19;;;;;;;5.35;4.00;;;19.60;99.90;;;;;;10507215;28;20198;-81
2023/09/19 03:11:42;;;;;;;4.80;3.75;;;;;;;;;;10468378;28;20187;-79
2023/09/19 03:17:04;;;;;;;6.55;4.25;;;19.50;99.90;;;;;;10474773;28;20245;-81
2023/09/19 03:22:27;;;;;;;7.75;4.38;;;19.50;99.90;;;;;;10464998;28;20286;-78
2023/09/19 03:27:49;;;;;;;4.90;4.30;;;19.50;99.90;;;;;;10455650;28;20539;-80
2023/09/19 03:33:12;;;;;;;5.60;3.97;;;19.40;99.90;;;;;;10510179;28;20258;-82
2023/09/19 03:38:35;;;;;;;9.40;5.18;;;19.40;99.90;;;;;;10509093;28;20230;-84
2023/09/19 03:43:57;;;;;;;15.23;8.07;;;19.30;1.00;;;;;;10522233;28;20473;-82
2023/09/19 03:49:19;;;;;;;11.38;6.78;;;19.30;1.00;;;;;;10479745;28;20208;-83
2023/09/19 03:54:41;;;;;;;16.98;10.52;;;19.30;1.00;;;;;;10467089;28;20191;-82
2023/09/19 04:00:11;;;;;;;20.95;9.85;;;19.20;1.00;;;;;;10483520;28;20238;-82
2023/09/19 04:05:33;;;;;;;13.60;6.18;;;19.20;1.00;;;;;;10481750;28;20188;-81
2023/09/19 04:10:55;;;;;;;10.48;5.35;;;19.10;1.00;;;;;;10482780;28;20203;-83
2023/09/19 04:16:17;;;;;;;6.38;5.05;;;19.20;1.00;;;;;;10509405;28;20203;-83
2023/09/19 04:21:40;;;;;;;7.95;5.22;;;;;;;;;;10504584;28;20227;-80
2023/09/19 04:27:02;;;;;;;5.68;3.95;;;19.00;1.00;;;;;;10492989;28;20229;-80
2023/09/19 04:32:24;;;;;;;6.13;4.15;;;19.00;1.00;;;;;;10451811;28;20203;-79
2023/09/19 04:37:46;;;;;;;6.45;4.03;;;;;;;;;;10477676;28;20224;-78
2023/09/19 04:43:08;;;;;;;6.68;4.22;;;;;;;;;;10479982;28;20192;-79
2023/09/19 04:48:31;;;;;;;4.63;3.92;;;;;;;;;;10479342;28;20275;-79
2023/09/19 04:53:53;;;;;;;5.60;4.22;;;;;;;;;;10479628;28;20241;-80
2023/09/19 04:59:15;;;;;;;6.47;4.93;;;;;;;;;;10461135;28;20250;-78
2023/09/19 05:04:38;;;;;;;8.02;4.78;;;;;;;;;;10446512;28;20231;-79
2023/09/19 05:10:00;;;;;;;9.77;5.07;;;;;;;;;;10478016;28;20198;-79
2023/09/19 05:15:22;;;;;;;10.50;5.53;;;;;;;;;;10473279;28;20501;-82
2023/09/19 05:20:44;;;;;;;8.23;4.45;;;;;;;;;;10512538;28;20389;-82
2023/09/19 05:26:06;;;;;;;14.85;6.03;;;;;;;;;;10504791;28;20182;-81
2023/09/19 05:31:28;;;;;;;8.48;5.20;;;;;;;;;;10460495;28;20253;-84
2023/09/19 05:36:50;;;;;;;7.13;4.03;;;;;;;;;;10480814;28;20203;-83
2023/09/19 05:42:11;;;;;;;5.60;4.00;;;;;;;;;;10476507;28;20480;-81
2023/09/19 05:47:34;;;;;;;7.38;4.35;;;;;;;;;;10476514;28;20192;-79
2023/09/19 05:52:56;;;;;;;8.38;4.10;;;;;;;;;;10481068;28;20518;-81
2023/09/19 05:58:19;;;;;;;6.53;4.25;;;;;;;;;;10476999;28;20238;-82
2023/09/19 06:03:41;;;;;;;6.85;4.40;;;;;;;;;;10462260;28;20187;-82
2023/09/19 06:09:05;;;;;;;5.63;4.25;;;;;;;;;;10470611;28;20208;-83
2023/09/19 06:14:27;;;;;;;6.93;3.60;;;;;;;;;;10482089;28;20187;-82
2023/09/19 06:19:49;;;;;;;6.53;4.22;;;;;;;;;;10507527;28;20226;-82
2023/09/19 06:25:12;;;;;;;8.15;4.10;;;;;;;;;;10509228;28;20198;-83
2023/09/19 06:30:34;;;;;;;4.38;3.42;;;;;;;;;;10508768;28;20514;-83
2023/09/19 06:36:00;;;;;;;7.63;4.07;;;;;;;;;;10489631;28;20199;-82
2023/09/19 06:41:24;;;;;;;5.85;3.42;;;;;;;;;;10499885;28;20227;-78
2023/09/19 06:46:49;;;;;;;8.32;3.28;;;19.20;1.00;;;;;;10484293;28;20422;-83
2023/09/19 06:52:11;;;;;;;4.45;3.45;;;19.30;1.00;;;;;;10483870;28;20463;-83
2023/09/19 06:57:33;;;;;;;4.70;3.53;;;19.40;1.00;;;;;;10438140;28;20240;-81
2023/09/19 07:03:00;;;;;;;4.97;3.25;;;19.40;99.90;;;;;;10468659;28;20188;-81
2023/09/19 07:08:22;;;;;;;5.05;3.60;;;19.40;99.90;;;;;;10483476;28;20227;-82
2023/09/19 07:13:44;;;;;;;5.93;3.45;;;19.40;99.90;;;;;;10492069;28;20210;-80
2023/09/19 07:19:06;;;;;;;5.40;3.72;;;19.60;99.90;;;;;;10464102;28;20262;-80
2023/09/19 07:24:28;;;;;;;3.22;2.92;;;19.70;99.00;;;;;;10517356;28;20187;-80
2023/09/19 07:29:50;;;;;;;3.30;3.00;;;19.80;99.90;;;;;;10542040;28;20472;-82
2023/09/19 07:35:13;;;;;;;5.25;3.88;;;19.80;1.00;;;;;;10534537;28;20200;-79
2023/09/19 07:40:36;;;;;;;4.63;3.25;;;20.10;99.90;;;;;;10509654;28;20415;-79
2023/09/19 07:46:00;;;;;;;5.05;3.40;;;20.30;99.90;;;;;;10508260;28;20222;-78
2023/09/19 07:51:22;;;;;;;5.75;3.15;;;20.20;1.00;;;;;;10508459;28;20266;-81
2023/09/19 07:56:45;;;;;;;8.00;3.35;;;20.00;1.00;;;;;;10507795;28;20242;-80
2023/09/19 08:02:09;;;;;;;3.72;2.85;;;20.00;1.00;;;;;;10499735;28;20244;-79
2023/09/19 08:07:31;;;;;;;4.03;2.70;;;21.20;99.90;;;;;;10480228;28;20207;-79
2023/09/19 08:12:57;;;;;;;3.58;2.35;;;22.30;1.00;;;;;;10535494;28;20202;-82
2023/09/19 08:18:22;;;;;;;5.15;2.95;;;22.50;99.90;;;;;;10498680;28;20227;-92
2023/09/19 08:23:44;;;;;;;5.05;2.60;;;23.60;1.00;;;;;;10513110;28;20262;-79
2023/09/19 08:29:11;;;;;;;3.65;2.55;;;23.80;99.90;;;;;;10528647;28;20203;-79
2023/09/19 08:34:34;;;;;;;4.32;2.33;;;23.20;1.00;;;;;;10558008;28;20237;-79
2023/09/19 08:39:55;;;;;;;7.05;3.05;;;23.20;1.00;;;;;;10521698;28;20234;-79
2023/09/19 08:45:17;;;;;;;2.63;1.92;;;22.90;1.00;;;;;;10497952;28;20195;-81
2023/09/19 08:50:44;;;;;;;4.03;1.90;;;22.80;1.00;;;;;;10516164;28;20278;-78
2023/09/19 08:56:10;;;;;;;5.60;1.92;;;22.40;99.90;;;;;;10507161;28;20242;-79
2023/09/19 09:01:32;;;;;;;3.67;2.05;;;21.70;99.90;;;;;;10497181;28;20284;-79
2023/09/19 09:06:55;;;;;;;4.75;3.25;;;21.80;1.00;;;;;;10515292;28;20183;-79
2023/09/19 09:12:16;;;;;;;3.72;1.73;;;23.60;99.90;;;;;;10496029;28;20294;-78
2023/09/19 09:17:38;;;;;;;3.35;1.90;;;23.60;99.90;;;;;;10486757;28;20230;-80
2023/09/19 09:23:03;;;;;;;3.70;1.88;;;22.90;99.90;;;;;;10474277;28;20223;-79
2023/09/19 09:28:28;;;;;;;5.38;1.75;;;22.20;99.90;;;;;;10495036;28;20222;-79
2023/09/19 09:33:56;;;;;;;2.47;1.67;;;21.80;1.00;;;;;;10504961;28;20278;-79
2023/09/19 09:39:31;;;;;;;2.15;1.20;;;22.00;99.90;;;;;;10454258;28;20289;-79
2023/09/19 09:45:17;;;;;;;8.80;1.60;;;22.90;99.90;;;;;;10502609;28;20211;-79
2023/09/19 09:50:44;;;;;;;7.82;2.03;;;23.20;99.90;;;;;;10471959;28;20199;-79
2023/09/19 09:56:08;;;;;;;4.60;2.05;;;22.60;99.90;;;;;;10498738;28;20269;-82
2023/09/19 10:01:48;;;;;;;2.53;1.30;;;22.70;99.90;;;;;;10497169;28;20239;-80
2023/09/19 10:07:24;;;;;;;3.92;1.90;;;22.90;99.90;;;;;;10498410;28;20262;-86
2023/09/19 10:12:48;;;;;;;2.80;1.45;;;22.40;99.90;;;;;;10511258;28;20500;-82
2023/09/19 10:18:18;;;;;;;4.00;1.85;;;21.90;99.90;;;;;;10455621;28;20235;-79
2023/09/19 10:23:43;;;;;;;5.00;3.88;;;23.00;99.90;;;;;;10498075;28;20199;-79
2023/09/19 10:29:07;;;;;;;4.28;1.35;;;;;;;;;;10489129;28;20583;-80
2023/09/19 10:34:30;;;;;;;3.08;1.75;;;;;;;;;;10493914;28;20214;-81
2023/09/19 10:39:53;;;;;;;2.70;1.67;;;27.30;99.90;;;;;;10456195;28;20250;-79
2023/09/19 10:45:17;;;;;;;3.42;1.73;;;27.30;99.90;;;;;;10470154;28;20200;-78
2023/09/19 10:51:00;;;;;;;2.75;1.63;;;26.90;99.90;;;;;;10477288;28;20211;-79
2023/09/19 10:56:32;;;;;;;3.42;1.60;;;25.90;99.90;;;;;;10494803;28;20376;-79
2023/09/19 11:01:58;;;;;;;3.17;1.52;;;24.60;1.00;;;;;;10494658;28;20301;-80
2023/09/19 11:07:20;;;;;;;6.45;1.90;;;24.30;99.90;;;;;;10519829;28;20191;-78
2023/09/19 11:12:45;;;;;;;4.75;1.88;;;24.50;99.90;;;;;;10517282;28;20191;-78
2023/09/19 11:18:42;;;;;;;4.15;1.92;;;24.20;99.90;;;;;;10492373;28;20234;-79
2023/09/19 11:24:10;;;;;;;4.82;1.90;;;24.10;99.90;;;;;;10459833;28;20204;-79
2023/09/19 11:29:33;;;;;;;5.43;1.95;;;24.10;99.90;;;;;;10529360;28;20195;-80
2023/09/19 11:35:08;;;;;;;11.48;4.32;;;23.80;99.90;;;;;;10519356;28;20532;-79
2023/09/19 11:40:30;;;;;;;5.25;2.13;;;23.40;99.90;;;;;;10486828;28;20230;-78
2023/09/19 11:45:57;;;;;;;2.75;1.92;;;23.00;99.90;;;;;;10481147;28;20257;-80
2023/09/19 11:51:26;;;;;;;3.58;1.73;;;22.90;99.90;;;;;;10503344;28;20198;-78
2023/09/19 11:56:53;;;;;;;2.08;1.52;;;23.30;99.90;;;;;;10518084;28;20235;-81
2023/09/19 12:02:38;;;;;;;4.05;1.63;;;23.30;99.90;;;;;;10495473;28;20470;-81
2023/09/19 12:08:00;;;;;;;3.65;1.77;;;23.20;99.90;;;;;;10498151;28;20509;-80
2023/09/19 12:13:21;;;;;;;3.90;1.52;;;23.40;99.90;;;;;;10523506;28;20203;-79
2023/09/19 12:18:44;;;;;;;7.63;1.60;;;25.20;99.90;;;;;;10490474;28;20272;-79
2023/09/19 12:24:18;;;;;;;3.42;1.60;;;26.50;99.90;;;;;;10515918;28;20211;-81
2023/09/19 12:29:55;;;;;;;3.45;1.20;;;27.30;99.90;;;;;;10519990;28;20190;-79
2023/09/19 12:35:36;;;;;;;5.25;1.65;;;27.40;99.90;;;;;;10502726;28;20481;-79
2023/09/19 12:41:01;;;;;;;5.72;1.90;;;27.50;99.90;;;;;;10498880;28;20227;-79
2023/09/19 12:46:26;;;;;;;5.20;1.60;;;27.00;99.90;;;;;;10460905;28;20191;-78
2023/09/19 12:51:47;;;;;;;1.75;1.33;;;25.30;99.90;;;;;;10503314;28;20203;-80
2023/09/19 12:57:25;;;;;;;3.10;1.65;;;24.40;99.90;;;;;;10496805;28;20668;-79
2023/09/19 13:03:15;;;;;;;4.93;1.60;;;24.90;99.90;;;;;;10512944;28;20231;-79
2023/09/19 13:08:49;;;;;;;3.30;2.00;;;25.70;99.90;;;;;;10483056;28;20195;-79
2023/09/19 13:14:13;;;;;;;3.92;1.90;;;25.80;99.90;;;;;;10457321;28;20205;-79
2023/09/19 13:19:45;;;;;;;5.15;1.90;;;25.70;99.90;;;;;;10465434;28;20227;-82
2023/09/19 13:25:13;;;;;;;6.30;1.80;;;25.90;99.90;;;;;;10495403;28;20211;-79
2023/09/19 13:30:42;;;;;;;2.63;1.40;;;25.90;99.90;;;;;;10498037;28;20342;-80
2023/09/19 13:36:04;;;;;;;3.33;1.75;;;26.00;99.90;;;;;;10513343;28;20195;-78
2023/09/19 13:41:26;;;;;;;2.95;1.70;;;25.50;99.90;;;;;;10510697;28;20490;-80
2023/09/19 13:46:48;;;;;;;3.75;2.67;;;25.30;99.90;;;;;;10467781;28;20248;-79
2023/09/19 13:52:12;;;;;;;2.72;1.77;;;25.40;99.90;;;;;;10522442;28;20268;-79
2023/09/19 13:57:34;;;;;;;2.42;1.55;;;24.50;99.90;;;;;;10500818;28;20465;-78
2023/09/19 14:02:56;;;;;;;5.35;2.10;;;;;;;;;;10490402;28;20223;-79
2023/09/19 14:08:18;;;;;;;4.32;1.52;;;23.20;99.90;;;;;;10495735;28;20246;-79
2023/09/19 14:13:40;;;;;;;2.88;1.65;;;22.90;99.90;;;;;;10520640;28;20283;-79
2023/09/19 14:19:01;;;;;;;3.40;1.88;;;23.10;99.90;;;;;;10477904;28;20250;-79
2023/09/19 14:24:23;;;;;;;5.25;2.33;;;23.20;99.90;;;;;;10484319;28;20272;-79
2023/09/19 14:29:45;;;;;;;3.58;2.42;;;23.30;99.90;;;;;;10515344;28;20199;-80
2023/09/19 14:35:09;;;;;;;4.20;2.22;;;23.20;99.90;;;;;;10528033;28;20230;-79
2023/09/19 14:40:31;;;;;;;7.10;2.42;;;23.00;99.90;;;;;;10500190;28;20231;-85
2023/09/19 14:45:52;;;;;;;5.75;2.88;;;22.90;99.90;;;;;;10522098;28;20485;-80
2023/09/19 14:51:15;;;;;;;4.22;2.22;;;22.70;99.90;;;;;;10479205;28;20204;-78
2023/09/19 14:56:36;;;;;;;3.80;1.98;;;;;;;;;;10489126;28;20241;-79
2023/09/19 15:01:58;;;;;;;4.00;2.17;;;22.20;1.00;;;;;;10511496;28;20235;-81
2023/09/19 15:07:20;;;;;;;5.32;1.95;;;21.90;99.90;;;;;;10497221;28;20218;-78
2023/09/19 15:12:42;;;;;;;2.95;2.20;;;21.80;99.90;;;;;;10505942;28;20191;-79
2023/09/19 15:18:05;;;;;;;4.00;2.10;;;21.90;99.90;;;;;;10500317;28;20191;-78
2023/09/19 15:23:26;;;;;;;4.60;2.65;;;21.80;99.90;;;;;;10521515;28;20293;-79
2023/09/19 15:28:49;;;;;;;3.65;2.00;;;;;;;;;;10506002;28;20254;-78
2023/09/19 15:34:14;;;;;;;3.28;1.60;;;21.50;99.90;;;;;;10520845;28;20195;-79
2023/09/19 15:39:36;;;;;;;4.35;2.30;;;21.30;99.90;;;;;;10493143;28;20233;-79
2023/09/19 15:44:58;;;;;;;3.95;1.98;;;21.20;99.90;;;;;;10508319;28;20250;-79
2023/09/19 15:50:21;;;;;;;3.92;1.90;;;21.10;99.90;;;;;;10481525;28;20198;-78
2023/09/19 15:55:43;;;;;;;3.25;2.13;;;20.90;99.90;;;;;;10481340;28;20223;-79
2023/09/19 16:01:08;;;;;;;2.45;1.70;;;20.70;99.90;;;;;;10491445;28;20524;-79
2023/09/19 16:06:31;;;;;;;3.25;1.95;;;20.70;99.90;;;;;;10522247;28;20200;-79
2023/09/19 16:11:52;;;;;;;3.92;2.08;;;20.60;1.00;;;;;;10517886;28;20199;-79
2023/09/19 16:17:15;;;;;;;5.93;3.13;;;20.60;1.00;;;;;;10507484;28;20258;-78
2023/09/19 16:22:36;;;;;;;5.93;2.65;;;20.50;1.00;;;;;;10476588;28;20231;-79
2023/09/19 16:27:58;;;;;;;6.05;2.63;;;20.40;99.90;;;;;;10533753;28;20233;-78
2023/09/19 16:33:19;;;;;;;2.85;2.20;;;;;;;;;;10490030;28;20390;-79
2023/09/19 16:38:43;;;;;;;4.78;2.33;;;20.10;99.90;;;;;;10521770;28;20270;-79
2023/09/19 16:44:07;;;;;;;5.22;2.75;;;20.00;99.90;;;;;;10518458;28;20439;-79
2023/09/19 16:49:30;;;;;;;4.72;2.65;;;19.90;99.90;;;;;;10521408;28;20218;-79
2023/09/19 16:54:52;;;;;;;4.82;2.92;;;;;;;;;;10484240;28;20203;-79
2023/09/19 17:00:17;;;;;;;6.90;3.00;;;19.60;99.90;;;;;;10497315;28;20227;-79
2023/09/19 17:05:39;;;;;;;4.97;2.30;;;19.50;99.90;;;;;;10502702;28;20193;-78
2023/09/19 17:11:12;;;;;;;2.80;2.17;;;19.30;99.90;;;;;;10518701;28;20199;-79
2023/09/19 17:16:34;;;;;;;5.05;2.90;;;19.20;99.90;;;;;;10520333;28;20297;-79
2023/09/19 17:21:57;;;;;;;3.95;3.22;;;19.20;99.90;;;;;;10495722;28;20230;-77
2023/09/19 17:27:18;;;;;;;6.75;4.35;;;19.00;99.90;;;;;;10485977;28;20208;-79
2023/09/19 17:32:40;;;;;;;8.25;5.60;;;18.90;99.90;;;;;;10479884;28;20211;-78
2023/09/19 17:38:03;;;;;;;21.80;15.93;;;;;;;;;;10479891;28;20266;-79
2023/09/19 17:43:25;;;;;;;27.60;18.70;;;18.70;99.90;;;;;;10478145;28;20286;-79
2023/09/19 17:48:48;;;;;;;17.52;11.15;;;18.60;99.90;;;;;;10477811;28;20412;-79
2023/09/19 17:54:10;;;;;;;12.45;8.15;;;18.60;99.90;;;;;;10478064;28;20184;-79
2023/09/19 17:59:31;;;;;;;16.25;7.82;;;18.50;99.90;;;;;;10460448;28;20592;-79
2023/09/19 18:04:53;;;;;;;10.75;5.28;;;18.40;99.90;;;;;;10481014;28;20374;-79
2023/09/19 18:10:14;;;;;;;8.82;4.75;;;18.30;99.90;;;;;;10477195;28;20229;-79
2023/09/19 18:15:37;;;;;;;14.38;6.20;;;18.30;99.90;;;;;;10501657;28;20493;-78
2023/09/19 18:21:01;;;;;;;21.33;12.32;;;18.20;99.90;;;;;;10473492;28;20456;-79
2023/09/19 18:26:22;;;;;;;16.30;9.13;;;18.10;99.90;;;;;;10503404;28;20418;-78
2023/09/19 18:31:45;;;;;;;13.35;8.82;;;18.00;99.90;;;;;;10508871;28;20510;-78
2023/09/19 18:37:06;;;;;;;9.60;6.13;;;17.80;99.90;;;;;;10475894;28;20415;-78
2023/09/19 18:42:29;;;;;;;11.05;5.00;;;17.80;99.90;;;;;;10478008;28;20231;-79
2023/09/19 18:47:51;;;;;;;8.93;4.03;;;17.70;99.90;;;;;;10476511;28;20199;-79
2023/09/19 18:53:12;;;;;;;6.93;3.85;;;17.60;99.90;;;;;;10476789;28;20263;-78
2023/09/19 18:58:34;;;;;;;8.57;3.28;;;17.60;99.90;;;;;;10481486;28;20438;-78
2023/09/19 19:03:56;;;;;;;13.02;3.80;;;17.50;99.90;;;;;;10472036;28;20541;-79
2023/09/19 19:09:19;;;;;;;8.30;3.97;;;17.40;99.90;;;;;;10478316;28;20205;-79
2023/09/19 19:14:44;;;;;;;7.38;3.60;;;17.30;99.90;;;;;;10492161;28;20266;-78
2023/09/19 19:20:07;;;;;;;6.22;3.20;;;17.20;99.90;;;;;;10500196;28;20284;-75
2023/09/19 19:25:28;;;;;;;7.70;4.28;;;17.20;99.90;;;;;;10481277;28;20227;-78
2023/09/19 19:30:50;;;;;;;7.53;3.53;;;17.20;99.90;;;;;;10482722;28;20196;-77
2023/09/19 19:36:12;;;;;;;7.45;3.45;;;17.10;99.90;;;;;;10500375;28;20685;-78
2023/09/19 19:41:38;;;;;;;10.93;5.38;;;17.00;99.90;;;;;;10482602;28;20414;-78
2023/09/19 19:47:00;;;;;;;9.32;4.20;;;;;;;;;;10482074;28;20194;-78
2023/09/19 19:52:24;;;;;;;8.00;3.80;;;16.70;99.90;;;;;;10481819;28;20211;-78
2023/09/19 19:57:45;;;;;;;5.38;3.65;;;16.70;99.90;;;;;;10497121;28;20246;-79
2023/09/19 20:03:07;;;;;;;5.97;3.42;;;16.70;99.90;;;;;;10463424;28;20239;-78
2023/09/19 20:08:29;;;;;;;11.07;4.50;;;16.60;99.90;;;;;;10481334;28;20242;-78
2023/09/19 20:13:51;;;;;;;6.88;3.53;;;16.60;1.00;;;;;;10490240;28;20206;-77
2023/09/19 20:19:14;;;;;;;7.38;3.30;;;;;;;;;;10507631;28;20220;-76
2023/09/19 20:24:36;;;;;;;8.88;4.10;;;16.40;99.90;;;;;;10504058;28;20199;-77
2023/09/19 20:29:58;;;;;;;18.30;6.65;;;16.40;99.90;;;;;;10522061;28;20193;-79
2023/09/19 20:35:20;;;;;;;13.98;5.13;;;16.40;99.90;;;;;;10520098;28;20200;-77
2023/09/19 20:40:42;;;;;;;12.98;3.63;;;16.40;99.90;;;;;;10480353;28;20226;-78
2023/09/19 20:46:04;;;;;;;8.90;3.65;;;16.40;99.90;;;;;;10480103;28;20197;-78
2023/09/19 20:51:26;;;;;;;10.88;3.20;;;16.40;99.90;;;;;;10479661;28;20237;-78
2023/09/19 20:56:49;;;;;;;8.82;3.80;;;16.40;99.90;;;;;;10479415;28;20239;-78
2023/09/19 21:02:11;;;;;;;8.27;3.65;;;16.40;99.90;;;;;;10513961;28;20233;-79
2023/09/19 21:07:33;;;;;;;6.93;3.10;;;16.40;99.90;;;;;;10495878;28;20248;-78
2023/09/19 21:12:54;;;;;;;8.95;3.15;;;16.40;99.90;;;;;;10480188;28;20473;-79
2023/09/19 21:18:16;;;;;;;5.50;2.85;;;16.40;99.90;;;;;;10520400;28;20358;-78
2023/09/19 21:23:39;;;;;;;6.72;3.63;;;16.40;99.90;;;;;;10476738;28;20231;-78
2023/09/19 21:29:00;;;;;;;8.75;4.07;;;16.30;99.90;;;;;;10463383;28;20196;-78
2023/09/19 21:34:22;;;;;;;7.07;2.95;;;16.30;99.90;;;;;;10493574;28;20194;-78
2023/09/19 21:39:44;;;;;;;8.75;3.40;;;16.30;99.90;;;;;;10478332;28;20217;-78
2023/09/19 21:45:05;;;;;;;11.13;4.28;;;16.20;99.90;;;;;;10493385;28;20215;-76
2023/09/19 21:50:29;;;;;;;7.75;3.05;;;16.20;99.90;;;;;;10481143;28;20324;-79
2023/09/19 21:55:57;;;;;;;7.22;3.08;;;16.10;99.90;;;;;;10459659;28;20321;-78
2023/09/19 22:01:22;;;;;;;8.02;3.40;;;16.10;99.90;;;;;;10477290;28;20235;-78
2023/09/19 22:06:44;;;;;;;6.25;2.75;;;16.00;99.90;;;;;;10477453;28;20231;-78
2023/09/19 22:12:06;;;;;;;6.32;2.78;;;15.90;99.90;;;;;;10479509;28;20213;-78
2023/09/19 22:17:28;;;;;;;6.03;3.30;;;15.90;99.90;;;;;;10517636;28;20193;-78
2023/09/19 22:22:49;;;;;;;5.95;3.08;;;15.90;99.90;;;;;;10494763;28;20229;-79
2023/09/19 22:28:16;;;;;;;11.27;3.45;;;15.80;1.00;;;;;;10477299;28;20217;-78
2023/09/19 22:33:38;;;;;;;6.20;2.75;;;15.70;1.00;;;;;;10459268;28;20488;-79
2023/09/19 22:39:03;;;;;;;13.32;3.10;;;15.80;99.90;;;;;;10472534;28;20207;-79
2023/09/19 22:44:25;;;;;;;7.88;3.10;;;15.80;99.90;;;;;;10459164;28;20542;-77
2023/09/19 22:49:48;;;;;;;14.32;3.20;;;;;;;;;;10476864;28;20218;-78
2023/09/19 22:55:10;;;;;;;5.07;2.38;;;;;;;;;;10477243;28;20245;-78
2023/09/19 23:06:14;;;;;;;6.32;2.72;;;;;;;;;;10509211;28;20194;-78
2023/09/19 23:11:36;;;;;;;4.63;2.30;;;;;;;;;;10483841;28;20198;-79
2023/09/19 23:17:04;;;;;;;10.45;2.85;;;15.60;1.00;;;;;;10520332;28;20192;-77
2023/09/19 23:22:28;;;;;;;5.55;2.67;;;15.50;1.00;;;;;;10507559;28;20415;-79
2023/09/19 23:27:52;;;;;;;7.72;3.13;;;;;;;;;;10465418;28;20218;-78
2023/09/19 23:33:15;;;;;;;8.73;3.08;;;;;;;;;;10483347;28;20423;-79
2023/09/19 23:38:37;;;;;;;4.95;2.80;;;;;;;;;;10482714;28;20255;-79
2023/09/19 23:43:59;;;;;;;4.88;2.70;;;15.50;1.00;;;;;;10467806;28;20225;-78
2023/09/19 23:49:22;;;;;;;7.43;2.85;;;15.20;99.90;;;;;;10498075;28;20201;-79
2023/09/19 23:54:45;;;;;;;5.53;2.55;;;15.40;99.90;;;;;;10484677;28;20229;-79
